sensor_id;sensor_type;location;lat;lon;timestamp;temperature;humidity
12233;DHT22;6179;51.748;8.728;2023-05-18T00:04:23;5.90;97.30
12233;DHT22;6179;51.748;8.728;2023-05-18T00:10:25;6.00;97.50
12233;DHT22;6179;51.748;8.728;2023-05-18T00:16:26;6.10;96.70
12233;DHT22;6179;51.748;8.728;2023-05-18T00:22:26;5.80;97.90
12233;DHT22;6179;51.748;8.728;2023-05-18T00:28:27;5.50;98.30
12233;DHT22;6179;51.748;8.728;2023-05-18T00:34:28;5.30;98.30
12233;DHT22;6179;51.748;8.728;2023-05-18T00:40:29;5.20;98.30
12233;DHT22;6179;51.748;8.728;2023-05-18T00:46:30;5.10;98.30
12233;DHT22;6179;51.748;8.728;2023-05-18T00:52:31;5.00;98.30
12233;DHT22;6179;51.748;8.728;2023-05-18T00:58:32;4.80;98.30
12233;DHT22;6179;51.748;8.728;2023-05-18T01:04:33;4.70;98.30
12233;DHT22;6179;51.748;8.728;2023-05-18T01:10:36;4.60;98.30
12233;DHT22;6179;51.748;8.728;2023-05-18T01:16:44;4.30;98.30
12233;DHT22;6179;51.748;8.728;2023-05-18T01:29:05;4.30;98.30
12233;DHT22;6179;51.748;8.728;2023-05-18T01:35:06;4.20;98.30
12233;DHT22;6179;51.748;8.728;2023-05-18T01:41:11;4.50;98.30
12233;DHT22;6179;51.748;8.728;2023-05-18T01:47:15;4.70;98.30
12233;DHT22;6179;51.748;8.728;2023-05-18T01:53:32;4.40;98.30
12233;DHT22;6179;51.748;8.728;2023-05-18T01:59:36;4.10;98.30
12233;DHT22;6179;51.748;8.728;2023-05-18T02:05:37;3.90;98.30
12233;DHT22;6179;51.748;8.728;2023-05-18T02:11:37;3.90;98.30
12233;DHT22;6179;51.748;8.728;2023-05-18T02:17:38;4.10;98.30
12233;DHT22;6179;51.748;8.728;2023-05-18T02:23:40;3.90;98.30
12233;DHT22;6179;51.748;8.728;2023-05-18T02:29:41;3.90;98.30
12233;DHT22;6179;51.748;8.728;2023-05-18T02:35:41;3.70;98.30
12233;DHT22;6179;51.748;8.728;2023-05-18T02:41:42;3.60;98.30
12233;DHT22;6179;51.748;8.728;2023-05-18T02:47:42;3.60;98.30
12233;DHT22;6179;51.748;8.728;2023-05-18T02:53:43;3.60;98.30
12233;DHT22;6179;51.748;8.728;2023-05-18T02:59:44;3.50;98.30
12233;DHT22;6179;51.748;8.728;2023-05-18T03:05:44;3.30;98.30
12233;DHT22;6179;51.748;8.728;2023-05-18T03:11:45;3.40;98.30
12233;DHT22;6179;51.748;8.728;2023-05-18T03:17:46;3.40;98.30
12233;DHT22;6179;51.748;8.728;2023-05-18T03:23:46;3.20;98.30
12233;DHT22;6179;51.748;8.728;2023-05-18T03:29:47;3.10;98.30
12233;DHT22;6179;51.748;8.728;2023-05-18T03:35:48;3.10;98.30
12233;DHT22;6179;51.748;8.728;2023-05-18T03:41:49;3.10;98.30
12233;DHT22;6179;51.748;8.728;2023-05-18T03:47:49;3.10;98.30
12233;DHT22;6179;51.748;8.728;2023-05-18T03:53:50;2.90;98.30
12233;DHT22;6179;51.748;8.728;2023-05-18T03:59:51;3.00;98.30
12233;DHT22;6179;51.748;8.728;2023-05-18T04:05:52;3.10;98.30
12233;DHT22;6179;51.748;8.728;2023-05-18T04:11:53;3.30;98.30
12233;DHT22;6179;51.748;8.728;2023-05-18T04:17:53;3.30;98.30
12233;DHT22;6179;51.748;8.728;2023-05-18T04:23:54;3.50;98.30
12233;DHT22;6179;51.748;8.728;2023-05-18T04:29:55;3.60;98.30
12233;DHT22;6179;51.748;8.728;2023-05-18T04:35:55;3.60;98.30
12233;DHT22;6179;51.748;8.728;2023-05-18T04:41:58;3.80;98.30
12233;DHT22;6179;51.748;8.728;2023-05-18T04:47:58;4.00;98.30
12233;DHT22;6179;51.748;8.728;2023-05-18T04:54:01;4.10;98.30
12233;DHT22;6179;51.748;8.728;2023-05-18T05:00:02;4.50;98.30
12233;DHT22;6179;51.748;8.728;2023-05-18T05:06:05;4.80;98.30
12233;DHT22;6179;51.748;8.728;2023-05-18T05:12:06;5.20;98.30
12233;DHT22;6179;51.748;8.728;2023-05-18T05:18:07;5.30;98.30
12233;DHT22;6179;51.748;8.728;2023-05-18T05:24:07;5.90;98.30
12233;DHT22;6179;51.748;8.728;2023-05-18T05:30:08;6.40;98.30
12233;DHT22;6179;51.748;8.728;2023-05-18T05:36:09;6.70;98.30
12233;DHT22;6179;51.748;8.728;2023-05-18T05:42:10;7.20;96.30
12233;DHT22;6179;51.748;8.728;2023-05-18T05:48:10;7.50;95.60
12233;DHT22;6179;51.748;8.728;2023-05-18T05:54:11;7.70;94.40
12233;DHT22;6179;51.748;8.728;2023-05-18T06:00:12;8.30;90.90
12233;DHT22;6179;51.748;8.728;2023-05-18T06:06:13;8.60;90.50
12233;DHT22;6179;51.748;8.728;2023-05-18T06:12:14;8.50;89.00
12233;DHT22;6179;51.748;8.728;2023-05-18T06:18:14;8.90;88.30
12233;DHT22;6179;51.748;8.728;2023-05-18T06:24:16;8.80;86.20
12233;DHT22;6179;51.748;8.728;2023-05-18T06:30:17;9.10;84.30
12233;DHT22;6179;51.748;8.728;2023-05-18T06:36:17;9.40;85.00
12233;DHT22;6179;51.748;8.728;2023-05-18T06:42:18;9.80;85.00
12233;DHT22;6179;51.748;8.728;2023-05-18T06:48:19;10.20;85.50
12233;DHT22;6179;51.748;8.728;2023-05-18T06:54:19;10.50;82.90
12233;DHT22;6179;51.748;8.728;2023-05-18T07:00:20;9.90;83.50
12233;DHT22;6179;51.748;8.728;2023-05-18T07:06:20;10.50;82.60
12233;DHT22;6179;51.748;8.728;2023-05-18T07:12:21;10.80;83.00
12233;DHT22;6179;51.748;8.728;2023-05-18T07:18:22;10.60;81.50
12233;DHT22;6179;51.748;8.728;2023-05-18T07:24:23;10.80;85.10
12233;DHT22;6179;51.748;8.728;2023-05-18T07:30:24;10.60;81.00
12233;DHT22;6179;51.748;8.728;2023-05-18T07:36:27;10.90;79.90
12233;DHT22;6179;51.748;8.728;2023-05-18T07:42:28;11.00;81.70
12233;DHT22;6179;51.748;8.728;2023-05-18T07:48:29;11.40;79.30
12233;DHT22;6179;51.748;8.728;2023-05-18T07:54:29;11.70;76.80
12233;DHT22;6179;51.748;8.728;2023-05-18T08:00:30;11.50;78.60
12233;DHT22;6179;51.748;8.728;2023-05-18T08:06:31;11.50;78.90
12233;DHT22;6179;51.748;8.728;2023-05-18T08:12:31;11.90;75.60
12233;DHT22;6179;51.748;8.728;2023-05-18T08:18:32;11.80;76.90
12233;DHT22;6179;51.748;8.728;2023-05-18T08:24:32;11.80;76.10
12233;DHT22;6179;51.748;8.728;2023-05-18T08:30:33;11.80;77.20
12233;DHT22;6179;51.748;8.728;2023-05-18T08:36:34;12.30;74.30
12233;DHT22;6179;51.748;8.728;2023-05-18T08:42:50;12.60;73.90
12233;DHT22;6179;51.748;8.728;2023-05-18T08:48:51;12.50;72.30
12233;DHT22;6179;51.748;8.728;2023-05-18T08:54:56;12.40;75.20
12233;DHT22;6179;51.748;8.728;2023-05-18T09:00:59;13.00;73.60
12233;DHT22;6179;51.748;8.728;2023-05-18T09:07:01;13.30;73.60
12233;DHT22;6179;51.748;8.728;2023-05-18T09:13:03;13.40;74.90
12233;DHT22;6179;51.748;8.728;2023-05-18T09:19:05;13.60;69.80
12233;DHT22;6179;51.748;8.728;2023-05-18T09:25:09;13.10;72.70
12233;DHT22;6179;51.748;8.728;2023-05-18T09:31:16;13.40;73.10
12233;DHT22;6179;51.748;8.728;2023-05-18T09:37:19;13.70;71.20
12233;DHT22;6179;51.748;8.728;2023-05-18T09:43:20;13.60;72.70
12233;DHT22;6179;51.748;8.728;2023-05-18T09:49:20;13.90;73.60
12233;DHT22;6179;51.748;8.728;2023-05-18T09:55:22;14.50;70.10
12233;DHT22;6179;51.748;8.728;2023-05-18T10:01:22;14.50;69.90
12233;DHT22;6179;51.748;8.728;2023-05-18T10:07:23;14.80;68.60
12233;DHT22;6179;51.748;8.728;2023-05-18T10:13:27;14.70;69.10
12233;DHT22;6179;51.748;8.728;2023-05-18T10:19:29;14.50;75.00
12233;DHT22;6179;51.748;8.728;2023-05-18T10:25:32;14.80;68.30
12233;DHT22;6179;51.748;8.728;2023-05-18T10:31:34;14.90;68.60
12233;DHT22;6179;51.748;8.728;2023-05-18T10:37:38;14.80;67.80
12233;DHT22;6179;51.748;8.728;2023-05-18T10:43:41;14.80;65.90
12233;DHT22;6179;51.748;8.728;2023-05-18T10:49:42;15.40;72.90
12233;DHT22;6179;51.748;8.728;2023-05-18T10:55:47;16.10;64.40
12233;DHT22;6179;51.748;8.728;2023-05-18T11:01:50;15.50;66.20
12233;DHT22;6179;51.748;8.728;2023-05-18T11:07:59;15.50;68.10
12233;DHT22;6179;51.748;8.728;2023-05-18T11:14:01;15.30;72.20
12233;DHT22;6179;51.748;8.728;2023-05-18T11:26:14;15.30;67.30
12233;DHT22;6179;51.748;8.728;2023-05-18T11:32:26;15.50;69.50
12233;DHT22;6179;51.748;8.728;2023-05-18T11:44:52;16.10;66.10
12233;DHT22;6179;51.748;8.728;2023-05-18T11:50:56;16.40;63.20
12233;DHT22;6179;51.748;8.728;2023-05-18T11:56:57;16.60;63.40
12233;DHT22;6179;51.748;8.728;2023-05-18T12:03:00;16.40;64.60
12233;DHT22;6179;51.748;8.728;2023-05-18T12:09:00;16.20;66.20
12233;DHT22;6179;51.748;8.728;2023-05-18T12:15:03;16.50;63.50
12233;DHT22;6179;51.748;8.728;2023-05-18T12:21:04;17.10;65.30
12233;DHT22;6179;51.748;8.728;2023-05-18T12:27:07;16.70;66.20
12233;DHT22;6179;51.748;8.728;2023-05-18T12:33:11;16.70;62.20
12233;DHT22;6179;51.748;8.728;2023-05-18T12:39:14;16.40;63.60
12233;DHT22;6179;51.748;8.728;2023-05-18T12:45:15;16.40;66.90
12233;DHT22;6179;51.748;8.728;2023-05-18T12:51:19;16.80;68.80
12233;DHT22;6179;51.748;8.728;2023-05-18T12:57:20;17.50;65.40
12233;DHT22;6179;51.748;8.728;2023-05-18T13:03:24;18.00;63.80
12233;DHT22;6179;51.748;8.728;2023-05-18T13:09:25;17.80;61.10
12233;DHT22;6179;51.748;8.728;2023-05-18T13:15:32;17.90;63.50
12233;DHT22;6179;51.748;8.728;2023-05-18T13:21:33;18.00;62.70
12233;DHT22;6179;51.748;8.728;2023-05-18T13:27:35;17.80;60.10
12233;DHT22;6179;51.748;8.728;2023-05-18T13:33:36;17.40;60.90
12233;DHT22;6179;51.748;8.728;2023-05-18T13:39:36;17.40;64.70
12233;DHT22;6179;51.748;8.728;2023-05-18T13:45:38;17.80;62.80
12233;DHT22;6179;51.748;8.728;2023-05-18T13:51:38;17.30;62.90
12233;DHT22;6179;51.748;8.728;2023-05-18T13:57:39;17.90;62.40
12233;DHT22;6179;51.748;8.728;2023-05-18T14:03:40;17.80;61.90
12233;DHT22;6179;51.748;8.728;2023-05-18T14:09:41;17.80;62.80
12233;DHT22;6179;51.748;8.728;2023-05-18T14:15:41;17.50;61.40
12233;DHT22;6179;51.748;8.728;2023-05-18T14:21:42;17.90;63.70
12233;DHT22;6179;51.748;8.728;2023-05-18T14:27:43;18.20;60.20
12233;DHT22;6179;51.748;8.728;2023-05-18T14:33:44;18.50;59.30
12233;DHT22;6179;51.748;8.728;2023-05-18T14:39:45;19.30;57.70
12233;DHT22;6179;51.748;8.728;2023-05-18T14:45:45;18.70;60.50
12233;DHT22;6179;51.748;8.728;2023-05-18T14:51:46;18.60;61.80
12233;DHT22;6179;51.748;8.728;2023-05-18T14:57:47;19.20;64.60
12233;DHT22;6179;51.748;8.728;2023-05-18T15:03:47;19.10;59.10
12233;DHT22;6179;51.748;8.728;2023-05-18T15:09:48;19.10;59.10
12233;DHT22;6179;51.748;8.728;2023-05-18T15:15:49;19.00;62.10
12233;DHT22;6179;51.748;8.728;2023-05-18T15:21:49;18.80;59.60
12233;DHT22;6179;51.748;8.728;2023-05-18T15:27:50;17.90;61.00
12233;DHT22;6179;51.748;8.728;2023-05-18T15:33:52;18.10;61.90
12233;DHT22;6179;51.748;8.728;2023-05-18T15:39:53;18.50;61.00
12233;DHT22;6179;51.748;8.728;2023-05-18T15:45:54;18.30;60.80
12233;DHT22;6179;51.748;8.728;2023-05-18T15:51:55;18.60;61.30
12233;DHT22;6179;51.748;8.728;2023-05-18T15:57:55;18.60;60.90
12233;DHT22;6179;51.748;8.728;2023-05-18T16:03:56;17.90;62.20
12233;DHT22;6179;51.748;8.728;2023-05-18T16:09:57;18.20;61.10
12233;DHT22;6179;51.748;8.728;2023-05-18T16:15:57;18.10;60.50
12233;DHT22;6179;51.748;8.728;2023-05-18T16:21:58;18.20;60.60
12233;DHT22;6179;51.748;8.728;2023-05-18T16:27:59;18.60;60.60
12233;DHT22;6179;51.748;8.728;2023-05-18T16:33:59;18.00;60.90
12233;DHT22;6179;51.748;8.728;2023-05-18T16:40:00;18.40;61.10
12233;DHT22;6179;51.748;8.728;2023-05-18T16:46:01;17.40;61.70
12233;DHT22;6179;51.748;8.728;2023-05-18T16:52:02;17.20;63.70
12233;DHT22;6179;51.748;8.728;2023-05-18T16:58:04;16.80;63.70
12233;DHT22;6179;51.748;8.728;2023-05-18T17:04:05;16.80;63.40
12233;DHT22;6179;51.748;8.728;2023-05-18T17:10:06;16.70;63.90
12233;DHT22;6179;51.748;8.728;2023-05-18T17:16:07;16.70;64.50
12233;DHT22;6179;51.748;8.728;2023-05-18T17:22:08;16.20;65.70
12233;DHT22;6179;51.748;8.728;2023-05-18T17:28:12;16.30;65.90
12233;DHT22;6179;51.748;8.728;2023-05-18T17:34:13;16.00;66.60
12233;DHT22;6179;51.748;8.728;2023-05-18T17:40:13;15.70;67.50
12233;DHT22;6179;51.748;8.728;2023-05-18T17:46:14;15.70;67.10
12233;DHT22;6179;51.748;8.728;2023-05-18T17:52:15;15.90;67.50
12233;DHT22;6179;51.748;8.728;2023-05-18T17:58:16;15.60;68.40
12233;DHT22;6179;51.748;8.728;2023-05-18T18:04:16;15.40;70.10
12233;DHT22;6179;51.748;8.728;2023-05-18T18:10:17;15.50;69.30
12233;DHT22;6179;51.748;8.728;2023-05-18T18:16:18;15.40;69.40
12233;DHT22;6179;51.748;8.728;2023-05-18T18:22:19;14.90;70.30
12233;DHT22;6179;51.748;8.728;2023-05-18T18:28:20;15.00;71.20
12233;DHT22;6179;51.748;8.728;2023-05-18T18:34:20;14.80;71.80
12233;DHT22;6179;51.748;8.728;2023-05-18T18:40:21;14.80;71.70
12233;DHT22;6179;51.748;8.728;2023-05-18T18:46:22;14.80;71.00
12233;DHT22;6179;51.748;8.728;2023-05-18T18:52:22;14.40;72.10
12233;DHT22;6179;51.748;8.728;2023-05-18T18:58:23;14.30;72.50
12233;DHT22;6179;51.748;8.728;2023-05-18T19:04:24;14.40;73.00
12233;DHT22;6179;51.748;8.728;2023-05-18T19:10:24;14.10;73.50
12233;DHT22;6179;51.748;8.728;2023-05-18T19:16:25;13.90;74.60
12233;DHT22;6179;51.748;8.728;2023-05-18T19:22:26;13.80;74.90
12233;DHT22;6179;51.748;8.728;2023-05-18T19:28:27;13.80;76.00
12233;DHT22;6179;51.748;8.728;2023-05-18T19:34:27;13.60;75.10
12233;DHT22;6179;51.748;8.728;2023-05-18T19:40:28;13.60;75.10
12233;DHT22;6179;51.748;8.728;2023-05-18T19:46:29;13.50;75.90
12233;DHT22;6179;51.748;8.728;2023-05-18T19:52:29;13.30;76.70
12233;DHT22;6179;51.748;8.728;2023-05-18T19:58:31;13.00;77.40
12233;DHT22;6179;51.748;8.728;2023-05-18T20:04:32;12.80;78.00
12233;DHT22;6179;51.748;8.728;2023-05-18T20:10:33;12.70;78.80
12233;DHT22;6179;51.748;8.728;2023-05-18T20:16:34;12.30;79.60
12233;DHT22;6179;51.748;8.728;2023-05-18T20:22:38;12.20;79.30
12233;DHT22;6179;51.748;8.728;2023-05-18T20:28:39;12.20;79.20
12233;DHT22;6179;51.748;8.728;2023-05-18T20:34:40;12.00;79.80
12233;DHT22;6179;51.748;8.728;2023-05-18T20:40:43;12.20;78.90
12233;DHT22;6179;51.748;8.728;2023-05-18T20:46:44;12.10;79.60
12233;DHT22;6179;51.748;8.728;2023-05-18T20:52:45;12.20;79.20
12233;DHT22;6179;51.748;8.728;2023-05-18T20:58:46;12.00;80.30
12233;DHT22;6179;51.748;8.728;2023-05-18T21:04:47;12.00;80.60
12233;DHT22;6179;51.748;8.728;2023-05-18T21:10:48;11.90;80.20
12233;DHT22;6179;51.748;8.728;2023-05-18T21:16:49;11.70;81.60
12233;DHT22;6179;51.748;8.728;2023-05-18T21:22:50;11.50;81.80
12233;DHT22;6179;51.748;8.728;2023-05-18T21:28:50;11.40;82.20
12233;DHT22;6179;51.748;8.728;2023-05-18T21:34:51;11.30;82.80
12233;DHT22;6179;51.748;8.728;2023-05-18T21:40:54;10.90;84.60
12233;DHT22;6179;51.748;8.728;2023-05-18T21:46:56;10.80;84.90
12233;DHT22;6179;51.748;8.728;2023-05-18T21:52:57;10.60;85.90
12233;DHT22;6179;51.748;8.728;2023-05-18T21:58:57;10.60;86.40
12233;DHT22;6179;51.748;8.728;2023-05-18T22:04:58;10.80;86.00
12233;DHT22;6179;51.748;8.728;2023-05-18T22:10:59;10.80;85.80
12233;DHT22;6179;51.748;8.728;2023-05-18T22:17:00;10.60;86.80
12233;DHT22;6179;51.748;8.728;2023-05-18T22:23:01;10.30;88.30
12233;DHT22;6179;51.748;8.728;2023-05-18T22:29:02;10.20;88.20
12233;DHT22;6179;51.748;8.728;2023-05-18T22:35:03;10.10;88.60
12233;DHT22;6179;51.748;8.728;2023-05-18T22:41:04;10.10;89.10
12233;DHT22;6179;51.748;8.728;2023-05-18T22:47:05;10.10;89.30
12233;DHT22;6179;51.748;8.728;2023-05-18T22:53:05;10.00;88.80
12233;DHT22;6179;51.748;8.728;2023-05-18T22:59:09;9.90;89.00
12233;DHT22;6179;51.748;8.728;2023-05-18T23:05:11;9.80;89.00
12233;DHT22;6179;51.748;8.728;2023-05-18T23:11:12;9.90;88.50
12233;DHT22;6179;51.748;8.728;2023-05-18T23:17:13;10.10;87.40
12233;DHT22;6179;51.748;8.728;2023-05-18T23:23:15;10.10;87.80
12233;DHT22;6179;51.748;8.728;2023-05-18T23:29:16;9.90;88.80
12233;DHT22;6179;51.748;8.728;2023-05-18T23:35:17;9.70;89.20
12233;DHT22;6179;51.748;8.728;2023-05-18T23:41:18;9.70;89.80
12233;DHT22;6179;51.748;8.728;2023-05-18T23:47:19;9.60;89.90
12233;DHT22;6179;51.748;8.728;2023-05-18T23:53:21;9.60;89.90
12233;DHT22;6179;51.748;8.728;2023-05-18T23:59:22;9.60;89.80
